sensor_id;sensor_type;location;lat;lon;timestamp;pressure;altitude;pressure_sealevel;temperature;humidity
73106;BME280;61559;50.476;15.588;2023-11-18T00:00:54;97870.54;;;2.37;86.98
73106;BME280;61559;50.476;15.588;2023-11-18T00:03:44;97874.04;;;2.37;87.05
73106;BME280;61559;50.476;15.588;2023-11-18T00:06:16;97879.44;;;2.38;87.04
73106;BME280;61559;50.476;15.588;2023-11-18T00:08:48;97881.48;;;2.39;87.09
73106;BME280;61559;50.476;15.588;2023-11-18T00:11:19;97880.42;;;2.40;86.95
73106;BME280;61559;50.476;15.588;2023-11-18T00:13:50;97877.35;;;2.44;87.07
73106;BME280;61559;50.476;15.588;2023-11-18T00:16:21;97878.33;;;2.45;86.86
73106;BME280;61559;50.476;15.588;2023-11-18T00:18:51;97884.13;;;2.47;86.86
73106;BME280;61559;50.476;15.588;2023-11-18T00:21:23;97891.30;;;2.46;86.77
73106;BME280;61559;50.476;15.588;2023-11-18T00:23:54;97890.30;;;2.49;86.65
73106;BME280;61559;50.476;15.588;2023-11-18T00:26:25;97895.14;;;2.52;86.82
73106;BME280;61559;50.476;15.588;2023-11-18T00:28:56;97892.48;;;2.56;86.74
73106;BME280;61559;50.476;15.588;2023-11-18T00:31:27;97899.30;;;2.60;86.79
73106;BME280;61559;50.476;15.588;2023-11-18T00:33:59;97905.98;;;2.63;86.84
73106;BME280;61559;50.476;15.588;2023-11-18T00:36:31;97912.45;;;2.67;86.69
73106;BME280;61559;50.476;15.588;2023-11-18T00:39:02;97916.45;;;2.69;86.83
73106;BME280;61559;50.476;15.588;2023-11-18T00:41:34;97913.35;;;2.72;86.85
73106;BME280;61559;50.476;15.588;2023-11-18T00:44:07;97911.89;;;2.73;87.06
73106;BME280;61559;50.476;15.588;2023-11-18T00:46:38;97915.75;;;2.74;86.93
73106;BME280;61559;50.476;15.588;2023-11-18T00:49:10;97920.22;;;2.72;86.80
73106;BME280;61559;50.476;15.588;2023-11-18T00:51:41;97924.02;;;2.71;86.74
73106;BME280;61559;50.476;15.588;2023-11-18T00:54:13;97919.39;;;2.69;86.61
73106;BME280;61559;50.476;15.588;2023-11-18T00:56:44;97924.41;;;2.68;86.63
73106;BME280;61559;50.476;15.588;2023-11-18T00:59:15;97928.46;;;2.65;86.69
73106;BME280;61559;50.476;15.588;2023-11-18T01:01:46;97924.54;;;2.62;86.85
73106;BME280;61559;50.476;15.588;2023-11-18T01:04:19;97931.53;;;2.57;86.90
73106;BME280;61559;50.476;15.588;2023-11-18T01:06:50;97944.06;;;2.52;87.21
73106;BME280;61559;50.476;15.588;2023-11-18T01:09:22;97949.61;;;2.47;87.53
73106;BME280;61559;50.476;15.588;2023-11-18T01:11:51;97956.10;;;2.44;87.97
73106;BME280;61559;50.476;15.588;2023-11-18T01:14:38;97952.64;;;2.38;88.39
73106;BME280;61559;50.476;15.588;2023-11-18T01:17:10;97949.91;;;2.34;88.60
73106;BME280;61559;50.476;15.588;2023-11-18T01:19:41;97956.09;;;2.31;88.69
73106;BME280;61559;50.476;15.588;2023-11-18T01:22:12;97960.29;;;2.29;88.81
73106;BME280;61559;50.476;15.588;2023-11-18T01:24:43;97965.61;;;2.28;89.08
73106;BME280;61559;50.476;15.588;2023-11-18T01:27:15;97969.79;;;2.28;89.14
73106;BME280;61559;50.476;15.588;2023-11-18T01:29:47;97968.59;;;2.30;89.28
73106;BME280;61559;50.476;15.588;2023-11-18T01:32:18;97975.13;;;2.34;89.40
73106;BME280;61559;50.476;15.588;2023-11-18T01:34:50;97978.29;;;2.36;89.50
73106;BME280;61559;50.476;15.588;2023-11-18T01:37:21;97981.36;;;2.37;89.51
73106;BME280;61559;50.476;15.588;2023-11-18T01:39:53;97984.28;;;2.40;89.65
73106;BME280;61559;50.476;15.588;2023-11-18T01:42:24;97984.66;;;2.43;89.83
73106;BME280;61559;50.476;15.588;2023-11-18T01:44:56;97989.66;;;2.45;89.81
73106;BME280;61559;50.476;15.588;2023-11-18T01:47:31;97994.34;;;2.45;89.70
73106;BME280;61559;50.476;15.588;2023-11-18T01:50:05;97997.24;;;2.46;89.70
73106;BME280;61559;50.476;15.588;2023-11-18T01:52:37;97998.71;;;2.47;89.74
73106;BME280;61559;50.476;15.588;2023-11-18T01:55:09;97999.85;;;2.47;89.64
73106;BME280;61559;50.476;15.588;2023-11-18T01:57:43;98000.77;;;2.49;89.65
73106;BME280;61559;50.476;15.588;2023-11-18T02:00:16;98002.05;;;2.50;89.52
73106;BME280;61559;50.476;15.588;2023-11-18T02:02:48;98001.84;;;2.49;89.44
73106;BME280;61559;50.476;15.588;2023-11-18T02:05:20;98005.13;;;2.47;89.32
73106;BME280;61559;50.476;15.588;2023-11-18T02:07:52;98006.79;;;2.45;89.34
73106;BME280;61559;50.476;15.588;2023-11-18T02:10:23;98010.08;;;2.42;89.25
73106;BME280;61559;50.476;15.588;2023-11-18T02:13:01;98013.57;;;2.41;89.36
73106;BME280;61559;50.476;15.588;2023-11-18T02:15:37;98011.19;;;2.38;89.31
73106;BME280;61559;50.476;15.588;2023-11-18T02:18:10;98009.54;;;2.34;89.21
73106;BME280;61559;50.476;15.588;2023-11-18T02:20:43;98014.22;;;2.29;88.85
73106;BME280;61559;50.476;15.588;2023-11-18T02:23:15;98010.63;;;2.26;88.68
73106;BME280;61559;50.476;15.588;2023-11-18T02:25:47;98007.70;;;2.22;88.82
73106;BME280;61559;50.476;15.588;2023-11-18T02:28:19;98000.69;;;2.18;88.79
73106;BME280;61559;50.476;15.588;2023-11-18T02:30:49;98007.87;;;2.15;88.72
73106;BME280;61559;50.476;15.588;2023-11-18T02:33:25;98006.14;;;2.09;88.73
73106;BME280;61559;50.476;15.588;2023-11-18T02:36:04;98006.95;;;2.05;88.60
73106;BME280;61559;50.476;15.588;2023-11-18T02:38:44;98009.80;;;2.00;88.50
73106;BME280;61559;50.476;15.588;2023-11-18T02:41:21;98013.02;;;1.92;88.40
73106;BME280;61559;50.476;15.588;2023-11-18T02:43:53;98015.59;;;1.86;88.40
73106;BME280;61559;50.476;15.588;2023-11-18T02:46:28;98019.16;;;1.79;88.35
73106;BME280;61559;50.476;15.588;2023-11-18T02:48:59;98019.75;;;1.72;88.42
73106;BME280;61559;50.476;15.588;2023-11-18T02:51:31;98025.11;;;1.65;88.38
73106;BME280;61559;50.476;15.588;2023-11-18T02:54:04;98025.70;;;1.59;88.39
73106;BME280;61559;50.476;15.588;2023-11-18T02:56:36;98030.56;;;1.54;88.53
73106;BME280;61559;50.476;15.588;2023-11-18T02:59:07;98030.23;;;1.49;88.47
73106;BME280;61559;50.476;15.588;2023-11-18T03:01:40;98032.55;;;1.44;88.54
73106;BME280;61559;50.476;15.588;2023-11-18T03:04:12;98036.67;;;1.41;88.63
73106;BME280;61559;50.476;15.588;2023-11-18T03:06:44;98041.31;;;1.39;88.85
73106;BME280;61559;50.476;15.588;2023-11-18T03:09:14;98040.06;;;1.36;88.69
73106;BME280;61559;50.476;15.588;2023-11-18T03:11:45;98041.36;;;1.30;88.78
73106;BME280;61559;50.476;15.588;2023-11-18T03:14:14;98048.08;;;1.25;88.82
73106;BME280;61559;50.476;15.588;2023-11-18T03:16:46;98051.08;;;1.19;88.94
73106;BME280;61559;50.476;15.588;2023-11-18T03:19:17;98049.35;;;1.15;88.97
73106;BME280;61559;50.476;15.588;2023-11-18T03:21:53;98052.58;;;1.13;89.18
73106;BME280;61559;50.476;15.588;2023-11-18T03:24:24;98053.72;;;1.15;89.36
73106;BME280;61559;50.476;15.588;2023-11-18T03:26:56;98051.77;;;1.17;89.51
73106;BME280;61559;50.476;15.588;2023-11-18T03:29:27;98045.10;;;1.19;89.72
73106;BME280;61559;50.476;15.588;2023-11-18T03:31:59;98041.80;;;1.23;89.70
73106;BME280;61559;50.476;15.588;2023-11-18T03:34:30;98053.45;;;1.24;89.56
73106;BME280;61559;50.476;15.588;2023-11-18T03:37:02;98058.86;;;1.24;89.56
73106;BME280;61559;50.476;15.588;2023-11-18T03:39:33;98055.34;;;1.25;89.92
73106;BME280;61559;50.476;15.588;2023-11-18T03:42:05;98053.80;;;1.24;89.79
73106;BME280;61559;50.476;15.588;2023-11-18T03:44:38;98055.71;;;1.24;89.83
73106;BME280;61559;50.476;15.588;2023-11-18T03:47:10;98058.88;;;1.24;90.15
73106;BME280;61559;50.476;15.588;2023-11-18T03:49:39;98062.48;;;1.28;90.31
73106;BME280;61559;50.476;15.588;2023-11-18T03:52:11;98062.33;;;1.31;90.41
73106;BME280;61559;50.476;15.588;2023-11-18T03:54:41;98056.62;;;1.37;90.38
73106;BME280;61559;50.476;15.588;2023-11-18T03:57:13;98055.40;;;1.41;90.30
73106;BME280;61559;50.476;15.588;2023-11-18T03:59:48;98053.70;;;1.43;90.38
73106;BME280;61559;50.476;15.588;2023-11-18T04:02:20;98053.59;;;1.42;90.13
73106;BME280;61559;50.476;15.588;2023-11-18T04:04:50;98054.80;;;1.41;90.02
73106;BME280;61559;50.476;15.588;2023-11-18T04:07:21;98058.40;;;1.41;90.20
73106;BME280;61559;50.476;15.588;2023-11-18T04:09:51;98054.61;;;1.39;90.02
73106;BME280;61559;50.476;15.588;2023-11-18T04:12:23;98056.89;;;1.39;90.18
73106;BME280;61559;50.476;15.588;2023-11-18T04:14:56;98060.07;;;1.38;90.13
73106;BME280;61559;50.476;15.588;2023-11-18T04:17:27;98061.67;;;1.39;90.33
73106;BME280;61559;50.476;15.588;2023-11-18T04:19:59;98067.58;;;1.41;90.59
73106;BME280;61559;50.476;15.588;2023-11-18T04:22:30;98066.23;;;1.42;90.56
73106;BME280;61559;50.476;15.588;2023-11-18T04:25:02;98063.36;;;1.40;90.36
73106;BME280;61559;50.476;15.588;2023-11-18T04:27:33;98058.41;;;1.42;90.44
73106;BME280;61559;50.476;15.588;2023-11-18T04:30:06;98061.69;;;1.44;90.55
73106;BME280;61559;50.476;15.588;2023-11-18T04:32:38;98069.84;;;1.46;90.64
73106;BME280;61559;50.476;15.588;2023-11-18T04:35:13;98075.54;;;1.47;90.63
73106;BME280;61559;50.476;15.588;2023-11-18T04:37:45;98074.38;;;1.48;90.47
73106;BME280;61559;50.476;15.588;2023-11-18T04:40:15;98070.63;;;1.48;90.60
73106;BME280;61559;50.476;15.588;2023-11-18T04:42:46;98071.49;;;1.48;90.64
73106;BME280;61559;50.476;15.588;2023-11-18T04:45:18;98071.75;;;1.48;90.58
73106;BME280;61559;50.476;15.588;2023-11-18T04:47:49;98071.67;;;1.50;90.67
73106;BME280;61559;50.476;15.588;2023-11-18T04:50:22;98075.05;;;1.52;90.79
73106;BME280;61559;50.476;15.588;2023-11-18T04:52:51;98072.19;;;1.54;90.92
73106;BME280;61559;50.476;15.588;2023-11-18T04:55:23;98072.64;;;1.57;90.88
73106;BME280;61559;50.476;15.588;2023-11-18T04:57:56;98075.92;;;1.60;90.76
73106;BME280;61559;50.476;15.588;2023-11-18T05:00:27;98081.73;;;1.62;90.79
73106;BME280;61559;50.476;15.588;2023-11-18T05:02:57;98087.83;;;1.62;90.78
73106;BME280;61559;50.476;15.588;2023-11-18T05:05:29;98087.92;;;1.61;90.77
73106;BME280;61559;50.476;15.588;2023-11-18T05:08:01;98087.46;;;1.61;90.69
73106;BME280;61559;50.476;15.588;2023-11-18T05:10:33;98086.75;;;1.61;90.72
73106;BME280;61559;50.476;15.588;2023-11-18T05:13:04;98087.40;;;1.60;90.70
73106;BME280;61559;50.476;15.588;2023-11-18T05:15:36;98084.14;;;1.59;90.87
73106;BME280;61559;50.476;15.588;2023-11-18T05:18:07;98091.09;;;1.59;90.69
73106;BME280;61559;50.476;15.588;2023-11-18T05:20:41;98088.58;;;1.57;90.92
73106;BME280;61559;50.476;15.588;2023-11-18T05:23:13;98091.22;;;1.54;91.14
73106;BME280;61559;50.476;15.588;2023-11-18T05:25:44;98095.44;;;1.54;91.23
73106;BME280;61559;50.476;15.588;2023-11-18T05:28:17;98098.15;;;1.55;91.24
73106;BME280;61559;50.476;15.588;2023-11-18T05:30:49;98096.45;;;1.54;91.41
73106;BME280;61559;50.476;15.588;2023-11-18T05:33:22;98100.96;;;1.53;91.38
73106;BME280;61559;50.476;15.588;2023-11-18T05:35:53;98105.44;;;1.54;91.62
73106;BME280;61559;50.476;15.588;2023-11-18T05:38:25;98108.45;;;1.55;91.61
73106;BME280;61559;50.476;15.588;2023-11-18T05:41:02;98109.30;;;1.58;91.65
73106;BME280;61559;50.476;15.588;2023-11-18T05:43:34;98106.74;;;1.60;91.80
73106;BME280;61559;50.476;15.588;2023-11-18T05:46:11;98106.89;;;1.60;91.71
73106;BME280;61559;50.476;15.588;2023-11-18T05:48:50;98107.86;;;1.60;91.82
73106;BME280;61559;50.476;15.588;2023-11-18T05:51:23;98109.03;;;1.60;91.82
73106;BME280;61559;50.476;15.588;2023-11-18T05:53:55;98102.54;;;1.61;91.77
73106;BME280;61559;50.476;15.588;2023-11-18T05:56:27;98105.65;;;1.61;91.87
73106;BME280;61559;50.476;15.588;2023-11-18T05:58:56;98108.06;;;1.63;91.77
73106;BME280;61559;50.476;15.588;2023-11-18T06:01:27;98108.52;;;1.63;91.74
73106;BME280;61559;50.476;15.588;2023-11-18T06:03:57;98108.40;;;1.67;91.74
73106;BME280;61559;50.476;15.588;2023-11-18T06:06:31;98104.52;;;1.69;91.91
73106;BME280;61559;50.476;15.588;2023-11-18T06:09:02;98110.66;;;1.73;91.80
73106;BME280;61559;50.476;15.588;2023-11-18T06:11:38;98116.98;;;1.76;91.83
73106;BME280;61559;50.476;15.588;2023-11-18T06:14:11;98125.45;;;1.79;91.72
73106;BME280;61559;50.476;15.588;2023-11-18T06:16:42;98133.58;;;1.82;91.67
73106;BME280;61559;50.476;15.588;2023-11-18T06:19:14;98137.80;;;1.87;91.59
73106;BME280;61559;50.476;15.588;2023-11-18T06:21:45;98139.90;;;1.92;91.48
73106;BME280;61559;50.476;15.588;2023-11-18T06:24:16;98136.56;;;1.97;91.44
73106;BME280;61559;50.476;15.588;2023-11-18T06:26:48;98137.09;;;2.03;91.37
73106;BME280;61559;50.476;15.588;2023-11-18T06:29:20;98135.98;;;2.08;91.36
73106;BME280;61559;50.476;15.588;2023-11-18T06:31:50;98134.98;;;2.12;91.18
73106;BME280;61559;50.476;15.588;2023-11-18T06:34:21;98138.21;;;2.15;91.15
73106;BME280;61559;50.476;15.588;2023-11-18T06:36:52;98148.83;;;2.18;90.84
73106;BME280;61559;50.476;15.588;2023-11-18T06:39:25;98152.74;;;2.18;90.61
73106;BME280;61559;50.476;15.588;2023-11-18T06:41:59;98150.36;;;2.19;90.61
73106;BME280;61559;50.476;15.588;2023-11-18T06:44:33;98153.27;;;2.20;90.59
73106;BME280;61559;50.476;15.588;2023-11-18T06:47:05;98152.92;;;2.20;90.58
73106;BME280;61559;50.476;15.588;2023-11-18T06:49:37;98149.77;;;2.20;90.66
73106;BME280;61559;50.476;15.588;2023-11-18T06:52:11;98155.34;;;2.19;90.86
73106;BME280;61559;50.476;15.588;2023-11-18T06:54:43;98154.20;;;2.18;90.89
73106;BME280;61559;50.476;15.588;2023-11-18T06:57:14;98155.30;;;2.16;90.96
73106;BME280;61559;50.476;15.588;2023-11-18T06:59:46;98158.33;;;2.14;90.91
73106;BME280;61559;50.476;15.588;2023-11-18T07:02:18;98155.18;;;2.14;90.99
73106;BME280;61559;50.476;15.588;2023-11-18T07:04:51;98160.93;;;2.15;90.99
73106;BME280;61559;50.476;15.588;2023-11-18T07:07:22;98167.70;;;2.16;90.95
73106;BME280;61559;50.476;15.588;2023-11-18T07:09:53;98164.78;;;2.18;90.87
73106;BME280;61559;50.476;15.588;2023-11-18T07:12:25;98170.46;;;2.21;90.97
73106;BME280;61559;50.476;15.588;2023-11-18T07:14:55;98177.81;;;2.24;90.86
73106;BME280;61559;50.476;15.588;2023-11-18T07:17:26;98184.42;;;2.27;90.71
73106;BME280;61559;50.476;15.588;2023-11-18T07:19:57;98188.69;;;2.32;90.90
73106;BME280;61559;50.476;15.588;2023-11-18T07:22:29;98196.05;;;2.34;90.87
73106;BME280;61559;50.476;15.588;2023-11-18T07:25:00;98195.27;;;2.37;90.84
73106;BME280;61559;50.476;15.588;2023-11-18T07:27:36;98202.40;;;2.43;90.84
73106;BME280;61559;50.476;15.588;2023-11-18T07:30:08;98214.05;;;2.47;90.79
73106;BME280;61559;50.476;15.588;2023-11-18T07:32:41;98220.30;;;2.52;90.74
73106;BME280;61559;50.476;15.588;2023-11-18T07:35:13;98219.15;;;2.57;90.70
73106;BME280;61559;50.476;15.588;2023-11-18T07:37:44;98220.20;;;2.62;90.60
73106;BME280;61559;50.476;15.588;2023-11-18T07:40:15;98226.36;;;2.68;90.59
73106;BME280;61559;50.476;15.588;2023-11-18T07:42:52;98222.31;;;2.74;90.50
73106;BME280;61559;50.476;15.588;2023-11-18T07:45:26;98221.29;;;2.77;90.26
73106;BME280;61559;50.476;15.588;2023-11-18T07:47:59;98222.23;;;2.80;89.89
73106;BME280;61559;50.476;15.588;2023-11-18T07:50:31;98218.73;;;2.80;89.23
73106;BME280;61559;50.476;15.588;2023-11-18T07:53:03;98217.66;;;2.80;89.20
73106;BME280;61559;50.476;15.588;2023-11-18T07:55:36;98216.36;;;2.78;88.76
73106;BME280;61559;50.476;15.588;2023-11-18T07:58:10;98220.27;;;2.73;88.59
73106;BME280;61559;50.476;15.588;2023-11-18T08:00:42;98226.25;;;2.67;88.45
73106;BME280;61559;50.476;15.588;2023-11-18T08:03:15;98225.84;;;2.61;88.73
73106;BME280;61559;50.476;15.588;2023-11-18T08:05:46;98222.98;;;2.59;88.90
73106;BME280;61559;50.476;15.588;2023-11-18T08:08:18;98224.13;;;2.56;89.02
73106;BME280;61559;50.476;15.588;2023-11-18T08:10:50;98225.79;;;2.54;89.06
73106;BME280;61559;50.476;15.588;2023-11-18T08:13:23;98224.83;;;2.55;89.20
73106;BME280;61559;50.476;15.588;2023-11-18T08:15:52;98225.16;;;2.57;89.40
73106;BME280;61559;50.476;15.588;2023-11-18T08:18:24;98221.27;;;2.58;89.33
73106;BME280;61559;50.476;15.588;2023-11-18T08:20:57;98229.55;;;2.61;89.32
73106;BME280;61559;50.476;15.588;2023-11-18T08:23:30;98232.92;;;2.63;89.17
73106;BME280;61559;50.476;15.588;2023-11-18T08:26:01;98238.42;;;2.68;89.44
73106;BME280;61559;50.476;15.588;2023-11-18T08:28:33;98238.17;;;2.76;89.49
73106;BME280;61559;50.476;15.588;2023-11-18T08:31:05;98234.34;;;2.84;89.36
73106;BME280;61559;50.476;15.588;2023-11-18T08:33:36;98240.43;;;2.92;89.18
73106;BME280;61559;50.476;15.588;2023-11-18T08:36:09;98248.86;;;3.00;88.86
73106;BME280;61559;50.476;15.588;2023-11-18T08:38:42;98252.25;;;3.07;88.60
73106;BME280;61559;50.476;15.588;2023-11-18T08:41:14;98249.87;;;3.13;88.26
73106;BME280;61559;50.476;15.588;2023-11-18T08:43:45;98254.94;;;3.21;88.15
73106;BME280;61559;50.476;15.588;2023-11-18T08:46:18;98258.91;;;3.26;87.43
73106;BME280;61559;50.476;15.588;2023-11-18T08:48:50;98258.77;;;3.32;87.46
73106;BME280;61559;50.476;15.588;2023-11-18T08:51:21;98258.48;;;3.40;87.67
73106;BME280;61559;50.476;15.588;2023-11-18T08:53:56;98254.83;;;3.46;86.91
73106;BME280;61559;50.476;15.588;2023-11-18T08:56:28;98255.92;;;3.48;86.39
73106;BME280;61559;50.476;15.588;2023-11-18T08:59:03;98260.52;;;3.48;86.12
73106;BME280;61559;50.476;15.588;2023-11-18T09:01:38;98258.63;;;3.44;85.52
73106;BME280;61559;50.476;15.588;2023-11-18T09:04:11;98258.18;;;3.40;85.37
73106;BME280;61559;50.476;15.588;2023-11-18T09:06:44;98260.81;;;3.39;85.72
73106;BME280;61559;50.476;15.588;2023-11-18T09:09:14;98264.83;;;3.38;85.90
73106;BME280;61559;50.476;15.588;2023-11-18T09:11:45;98269.00;;;3.37;85.99
73106;BME280;61559;50.476;15.588;2023-11-18T09:14:18;98272.16;;;3.38;85.91
73106;BME280;61559;50.476;15.588;2023-11-18T09:16:49;98279.80;;;3.39;85.29
73106;BME280;61559;50.476;15.588;2023-11-18T09:19:20;98284.66;;;3.40;85.28
73106;BME280;61559;50.476;15.588;2023-11-18T09:21:51;98289.83;;;3.42;84.67
73106;BME280;61559;50.476;15.588;2023-11-18T09:24:24;98294.83;;;3.44;83.34
73106;BME280;61559;50.476;15.588;2023-11-18T09:26:55;98297.04;;;3.48;81.58
73106;BME280;61559;50.476;15.588;2023-11-18T09:29:27;98299.59;;;3.54;82.35
73106;BME280;61559;50.476;15.588;2023-11-18T09:31:56;98302.76;;;3.61;81.96
73106;BME280;61559;50.476;15.588;2023-11-18T09:34:28;98308.55;;;3.65;81.47
73106;BME280;61559;50.476;15.588;2023-11-18T09:37:03;98303.95;;;3.69;79.79
73106;BME280;61559;50.476;15.588;2023-11-18T09:39:35;98300.88;;;3.72;79.80
73106;BME280;61559;50.476;15.588;2023-11-18T09:42:08;98299.23;;;3.76;80.26
73106;BME280;61559;50.476;15.588;2023-11-18T09:44:40;98294.11;;;3.80;79.75
73106;BME280;61559;50.476;15.588;2023-11-18T09:47:13;98293.90;;;3.85;78.78
73106;BME280;61559;50.476;15.588;2023-11-18T09:49:51;98291.81;;;3.92;78.31
73106;BME280;61559;50.476;15.588;2023-11-18T09:52:27;98285.41;;;4.02;78.05
73106;BME280;61559;50.476;15.588;2023-11-18T09:55:07;98287.89;;;4.13;76.19
73106;BME280;61559;50.476;15.588;2023-11-18T09:57:51;98283.33;;;4.24;75.87
73106;BME280;61559;50.476;15.588;2023-11-18T10:00:28;98281.70;;;4.37;75.32
73106;BME280;61559;50.476;15.588;2023-11-18T10:03:02;98289.57;;;4.49;71.23
73106;BME280;61559;50.476;15.588;2023-11-18T10:05:39;98292.17;;;4.58;70.46
73106;BME280;61559;50.476;15.588;2023-11-18T10:08:11;98294.01;;;4.68;75.06
73106;BME280;61559;50.476;15.588;2023-11-18T10:10:47;98293.86;;;4.68;75.55
73106;BME280;61559;50.476;15.588;2023-11-18T10:13:20;98299.34;;;4.64;75.84
73106;BME280;61559;50.476;15.588;2023-11-18T10:15:53;98304.41;;;4.65;76.52
73106;BME280;61559;50.476;15.588;2023-11-18T10:18:24;98304.29;;;4.63;75.91
73106;BME280;61559;50.476;15.588;2023-11-18T10:20:58;98311.20;;;4.56;75.83
73106;BME280;61559;50.476;15.588;2023-11-18T10:23:29;98314.92;;;4.49;76.25
73106;BME280;61559;50.476;15.588;2023-11-18T10:26:04;98319.02;;;4.41;76.79
73106;BME280;61559;50.476;15.588;2023-11-18T10:28:36;98323.60;;;4.31;76.58
73106;BME280;61559;50.476;15.588;2023-11-18T10:31:08;98325.31;;;4.19;77.01
73106;BME280;61559;50.476;15.588;2023-11-18T10:33:41;98327.61;;;4.07;77.58
73106;BME280;61559;50.476;15.588;2023-11-18T10:36:21;98334.59;;;3.99;78.30
73106;BME280;61559;50.476;15.588;2023-11-18T10:38:54;98349.90;;;3.90;79.18
73106;BME280;61559;50.476;15.588;2023-11-18T10:41:26;98355.16;;;3.81;79.84
73106;BME280;61559;50.476;15.588;2023-11-18T10:44:10;98356.54;;;3.75;80.52
73106;BME280;61559;50.476;15.588;2023-11-18T10:46:53;98353.61;;;3.72;80.66
73106;BME280;61559;50.476;15.588;2023-11-18T10:49:26;98345.47;;;3.73;81.13
73106;BME280;61559;50.476;15.588;2023-11-18T10:51:58;98345.06;;;3.80;81.69
73106;BME280;61559;50.476;15.588;2023-11-18T10:54:33;98345.98;;;3.89;81.57
73106;BME280;61559;50.476;15.588;2023-11-18T10:57:03;98344.10;;;3.97;81.51
73106;BME280;61559;50.476;15.588;2023-11-18T11:00:01;98340.67;;;4.03;81.27
73106;BME280;61559;50.476;15.588;2023-11-18T11:02:33;98341.88;;;4.12;81.21
73106;BME280;61559;50.476;15.588;2023-11-18T11:05:09;98340.38;;;4.21;81.56
73106;BME280;61559;50.476;15.588;2023-11-18T11:07:51;98342.39;;;4.34;81.94
73106;BME280;61559;50.476;15.588;2023-11-18T11:10:23;98346.98;;;4.46;81.69
73106;BME280;61559;50.476;15.588;2023-11-18T11:13:00;98349.80;;;4.55;81.46
73106;BME280;61559;50.476;15.588;2023-11-18T11:15:33;98354.15;;;4.64;81.23
73106;BME280;61559;50.476;15.588;2023-11-18T11:18:22;98354.59;;;4.69;80.64
73106;BME280;61559;50.476;15.588;2023-11-18T11:21:06;98349.81;;;4.72;80.05
73106;BME280;61559;50.476;15.588;2023-11-18T11:23:49;98343.08;;;4.73;79.94
73106;BME280;61559;50.476;15.588;2023-11-18T11:26:37;98341.39;;;4.73;79.22
73106;BME280;61559;50.476;15.588;2023-11-18T11:29:27;98342.95;;;4.69;78.11
73106;BME280;61559;50.476;15.588;2023-11-18T11:32:02;98339.58;;;4.60;77.50
73106;BME280;61559;50.476;15.588;2023-11-18T11:34:36;98339.66;;;4.48;77.58
73106;BME280;61559;50.476;15.588;2023-11-18T11:37:10;98337.52;;;4.39;78.57
73106;BME280;61559;50.476;15.588;2023-11-18T11:39:44;98338.70;;;4.34;79.12
73106;BME280;61559;50.476;15.588;2023-11-18T11:42:18;98338.60;;;4.34;78.85
73106;BME280;61559;50.476;15.588;2023-11-18T11:44:51;98341.06;;;4.33;78.77
73106;BME280;61559;50.476;15.588;2023-11-18T11:47:26;98342.85;;;4.37;79.49
73106;BME280;61559;50.476;15.588;2023-11-18T11:50:02;98343.40;;;4.43;79.31
73106;BME280;61559;50.476;15.588;2023-11-18T11:52:46;98343.48;;;4.48;79.25
73106;BME280;61559;50.476;15.588;2023-11-18T11:55:27;98341.88;;;4.52;78.75
73106;BME280;61559;50.476;15.588;2023-11-18T11:58:00;98346.38;;;4.55;78.01
73106;BME280;61559;50.476;15.588;2023-11-18T12:00:32;98352.67;;;4.56;77.78
73106;BME280;61559;50.476;15.588;2023-11-18T12:03:13;98360.52;;;4.53;76.90
73106;BME280;61559;50.476;15.588;2023-11-18T12:05:49;98359.59;;;4.54;77.08
73106;BME280;61559;50.476;15.588;2023-11-18T12:08:21;98362.41;;;4.55;77.13
73106;BME280;61559;50.476;15.588;2023-11-18T12:10:56;98362.52;;;4.58;77.34
73106;BME280;61559;50.476;15.588;2023-11-18T12:13:27;98363.87;;;4.60;76.97
73106;BME280;61559;50.476;15.588;2023-11-18T12:16:05;98363.73;;;4.55;76.19
73106;BME280;61559;50.476;15.588;2023-11-18T12:18:40;98363.05;;;4.50;75.87
73106;BME280;61559;50.476;15.588;2023-11-18T12:24:23;98381.47;;;4.37;76.77
73106;BME280;61559;50.476;15.588;2023-11-18T12:26:54;98377.14;;;4.29;76.62
73106;BME280;61559;50.476;15.588;2023-11-18T12:29:35;98376.55;;;4.17;76.46
73106;BME280;61559;50.476;15.588;2023-11-18T12:32:13;98371.36;;;4.08;77.27
73106;BME280;61559;50.476;15.588;2023-11-18T12:35:05;98378.70;;;4.02;77.68
73106;BME280;61559;50.476;15.588;2023-11-18T12:38:10;98381.58;;;3.99;77.98
73106;BME280;61559;50.476;15.588;2023-11-18T12:40:58;98378.55;;;3.98;78.24
73106;BME280;61559;50.476;15.588;2023-11-18T12:43:46;98378.02;;;4.00;78.20
73106;BME280;61559;50.476;15.588;2023-11-18T12:46:46;98372.05;;;4.00;78.33
73106;BME280;61559;50.476;15.588;2023-11-18T12:49:20;98378.44;;;4.01;78.70
73106;BME280;61559;50.476;15.588;2023-11-18T12:51:54;98380.98;;;4.00;78.30
73106;BME280;61559;50.476;15.588;2023-11-18T12:54:27;98376.30;;;4.01;78.67
73106;BME280;61559;50.476;15.588;2023-11-18T12:57:00;98363.33;;;4.03;78.34
73106;BME280;61559;50.476;15.588;2023-11-18T12:59:31;98365.88;;;4.04;78.18
73106;BME280;61559;50.476;15.588;2023-11-18T13:02:00;98360.27;;;4.11;78.46
73106;BME280;61559;50.476;15.588;2023-11-18T13:04:34;98355.55;;;4.14;78.16
73106;BME280;61559;50.476;15.588;2023-11-18T13:07:11;98362.26;;;4.16;77.10
73106;BME280;61559;50.476;15.588;2023-11-18T13:09:42;98364.23;;;4.15;77.23
73106;BME280;61559;50.476;15.588;2023-11-18T13:12:16;98358.40;;;4.13;77.00
73106;BME280;61559;50.476;15.588;2023-11-18T13:14:50;98358.76;;;4.13;77.18
73106;BME280;61559;50.476;15.588;2023-11-18T13:17:22;98360.13;;;4.12;76.87
73106;BME280;61559;50.476;15.588;2023-11-18T13:19:53;98359.57;;;4.12;77.25
73106;BME280;61559;50.476;15.588;2023-11-18T13:22:27;98354.72;;;4.11;77.29
73106;BME280;61559;50.476;15.588;2023-11-18T13:25:14;98350.40;;;4.13;77.46
73106;BME280;61559;50.476;15.588;2023-11-18T13:27:47;98344.48;;;4.13;77.23
73106;BME280;61559;50.476;15.588;2023-11-18T13:30:19;98335.97;;;4.13;77.32
73106;BME280;61559;50.476;15.588;2023-11-18T13:32:50;98329.39;;;4.12;76.46
73106;BME280;61559;50.476;15.588;2023-11-18T13:35:22;98332.59;;;4.11;76.53